createdAt,value
2023-12-22T00:00:03.602Z,101200.88
2023-12-22T00:02:18.011Z,101204.36
2023-12-22T00:04:30.348Z,101201.94
2023-12-22T00:06:44.484Z,101202.46
2023-12-22T00:08:57.076Z,101199.75
2023-12-22T00:11:09.511Z,101191.70
2023-12-22T00:13:21.963Z,101189.27
2023-12-22T00:15:34.480Z,101189.61
2023-12-22T00:17:47.291Z,101196.09
2023-12-22T00:20:05.167Z,101194.44
2023-12-22T00:22:17.977Z,101194.98
2023-12-22T00:24:30.463Z,101194.31
2023-12-22T00:26:42.977Z,101194.67
2023-12-22T00:28:55.421Z,101194.33
2023-12-22T00:31:07.904Z,101195.84
2023-12-22T00:33:20.550Z,101198.52
2023-12-22T00:35:33.260Z,101194.13
2023-12-22T00:37:45.834Z,101196.00
2023-12-22T00:39:58.790Z,101193.74
2023-12-22T00:42:11.954Z,101196.79
2023-12-22T00:44:24.253Z,101197.21
2023-12-22T00:46:36.709Z,101193.17
2023-12-22T00:48:49.391Z,101192.41
2023-12-22T00:51:02.151Z,101191.35
2023-12-22T00:53:14.867Z,101188.59
2023-12-22T00:55:27.402Z,101190.95
2023-12-22T00:57:40.267Z,101190.70
2023-12-22T00:59:53.040Z,101187.15
2023-12-22T01:02:05.786Z,101188.59
2023-12-22T01:04:18.475Z,101188.99
2023-12-22T01:06:32.458Z,101190.61
2023-12-22T01:08:45.528Z,101190.61
2023-12-22T01:10:58.015Z,101187.09
2023-12-22T01:13:10.613Z,101190.87
2023-12-22T01:15:23.278Z,101192.76
2023-12-22T01:17:35.717Z,101193.47
2023-12-22T01:19:48.073Z,101193.44
2023-12-22T01:22:00.420Z,101192.08
2023-12-22T01:24:13.127Z,101195.41
2023-12-22T01:26:25.477Z,101195.44
2023-12-22T01:28:38.336Z,101194.99
2023-12-22T01:30:50.948Z,101199.52
2023-12-22T01:33:03.992Z,101198.10
2023-12-22T01:35:16.551Z,101197.48
2023-12-22T01:37:28.846Z,101196.98
2023-12-22T01:39:41.185Z,101197.79
2023-12-22T01:41:53.857Z,101194.73
2023-12-22T01:44:06.080Z,101197.77
2023-12-22T01:46:19.754Z,101202.36
2023-12-22T01:48:32.984Z,101204.42
2023-12-22T01:50:46.530Z,101206.30
2023-12-22T01:52:59.802Z,101206.42
2023-12-22T01:55:14.946Z,101207.17
2023-12-22T01:57:27.858Z,101208.40
2023-12-22T01:59:41.472Z,101210.46
2023-12-22T02:01:53.830Z,101205.77
2023-12-22T02:04:06.706Z,101207.30
2023-12-22T02:06:20.368Z,101210.71
2023-12-22T02:08:35.597Z,101208.82
2023-12-22T02:10:48.021Z,101208.85
2023-12-22T02:13:00.655Z,101207.23
2023-12-22T02:15:14.942Z,101202.73
2023-12-22T02:17:36.280Z,101203.21
2023-12-22T02:19:51.038Z,101199.52
2023-12-22T02:22:10.568Z,101197.80
2023-12-22T02:24:22.799Z,101201.42
2023-12-22T02:26:47.035Z,101200.84
2023-12-22T02:29:01.661Z,101200.39
2023-12-22T02:31:20.956Z,101206.20
2023-12-22T02:33:35.725Z,101207.79
2023-12-22T02:35:52.186Z,101205.60
2023-12-22T02:38:06.265Z,101203.08
2023-12-22T02:40:21.616Z,101199.35
2023-12-22T02:42:34.759Z,101198.91
2023-12-22T02:44:47.858Z,101204.03
2023-12-22T02:47:00.453Z,101209.04
2023-12-22T02:49:15.487Z,101203.85
2023-12-22T02:51:27.946Z,101209.84
2023-12-22T02:53:40.450Z,101213.02
2023-12-22T02:55:53.582Z,101212.43
2023-12-22T02:58:06.331Z,101214.94
2023-12-22T03:00:20.767Z,101221.27
2023-12-22T03:02:33.283Z,101224.88
2023-12-22T03:04:45.797Z,101226.82
2023-12-22T03:06:58.182Z,101227.98
2023-12-22T03:09:10.759Z,101231.52
2023-12-22T03:11:23.063Z,101233.73
2023-12-22T03:13:35.814Z,101234.45
2023-12-22T03:15:49.396Z,101240.89
2023-12-22T03:18:02.948Z,101244.87
2023-12-22T03:20:16.709Z,101248.55
2023-12-22T03:22:28.914Z,101244.48
2023-12-22T03:24:41.849Z,101247.13
2023-12-22T03:26:54.759Z,101248.02
2023-12-22T03:29:07.363Z,101247.85
2023-12-22T03:31:20.038Z,101251.75
2023-12-22T03:33:32.902Z,101250.00
2023-12-22T03:35:45.333Z,101252.94
2023-12-22T03:37:57.687Z,101246.70
2023-12-22T03:40:11.904Z,101251.55
2023-12-22T03:42:24.782Z,101252.70
2023-12-22T03:44:37.216Z,101247.90
2023-12-22T03:46:50.615Z,101245.41
2023-12-22T03:49:03.338Z,101245.73
2023-12-22T03:51:16.989Z,101245.17
2023-12-22T03:53:29.777Z,101244.51
2023-12-22T03:55:42.032Z,101245.35
2023-12-22T03:57:54.332Z,101243.01
2023-12-22T04:00:07.736Z,101238.73
2023-12-22T04:02:20.349Z,101240.23
2023-12-22T04:04:33.220Z,101242.02
2023-12-22T04:06:47.296Z,101246.24
2023-12-22T04:09:00.138Z,101244.48
2023-12-22T04:11:12.575Z,101238.27
2023-12-22T04:13:25.264Z,101238.61
2023-12-22T04:15:38.035Z,101238.20
2023-12-22T04:17:50.728Z,101239.30
2023-12-22T04:20:03.321Z,101241.76
2023-12-22T04:22:15.771Z,101243.69
2023-12-22T04:24:28.003Z,101243.13
2023-12-22T04:26:40.688Z,101246.52
2023-12-22T04:28:53.024Z,101245.30
2023-12-22T04:31:05.432Z,101242.83
2023-12-22T04:33:18.013Z,101239.34
2023-12-22T04:35:30.422Z,101241.61
2023-12-22T04:37:42.789Z,101239.91
2023-12-22T04:39:55.759Z,101235.29
2023-12-22T04:42:08.260Z,101242.05
2023-12-22T04:44:20.649Z,101238.86
2023-12-22T04:46:33.000Z,101238.67
2023-12-22T04:48:45.890Z,101239.49
2023-12-22T04:50:58.416Z,101237.87
2023-12-22T04:53:11.005Z,101238.70
2023-12-22T04:55:24.309Z,101238.33
2023-12-22T04:57:36.648Z,101236.62
2023-12-22T04:59:49.017Z,101236.25
2023-12-22T05:02:01.988Z,101238.04
2023-12-22T05:04:14.373Z,101236.70
2023-12-22T05:06:26.969Z,101237.02
2023-12-22T05:08:39.457Z,101232.34
2023-12-22T05:10:51.887Z,101232.52
2023-12-22T05:13:04.149Z,101233.21
2023-12-22T05:15:17.552Z,101234.32
2023-12-22T05:17:30.226Z,101230.58
2023-12-22T05:19:43.271Z,101230.89
2023-12-22T05:21:58.083Z,101228.19
2023-12-22T05:24:11.113Z,101227.95
2023-12-22T05:26:26.168Z,101225.75
2023-12-22T05:28:38.914Z,101231.77
2023-12-22T05:30:51.521Z,101227.44
2023-12-22T05:33:04.061Z,101223.43
2023-12-22T05:35:16.566Z,101222.64
2023-12-22T05:37:29.023Z,101216.52
2023-12-22T05:39:41.294Z,101218.84
2023-12-22T05:41:53.478Z,101219.89
2023-12-22T05:44:06.469Z,101218.71
2023-12-22T05:46:18.839Z,101223.14
2023-12-22T05:48:31.756Z,101222.93
2023-12-22T05:50:44.356Z,101225.61
2023-12-22T05:52:56.936Z,101229.38
2023-12-22T05:55:10.641Z,101231.15
2023-12-22T05:57:22.891Z,101235.39
2023-12-22T05:59:35.523Z,101238.02
2023-12-22T06:01:47.989Z,101245.16
2023-12-22T06:04:00.384Z,101248.79
2023-12-22T06:06:13.568Z,101249.83
2023-12-22T06:08:25.949Z,101251.12
2023-12-22T06:10:38.301Z,101252.05
2023-12-22T06:12:50.701Z,101250.41
2023-12-22T06:15:03.122Z,101251.46
2023-12-22T06:17:15.388Z,101249.33
2023-12-22T06:19:30.758Z,101244.88
2023-12-22T06:21:46.191Z,101243.80
2023-12-22T06:23:58.703Z,101246.00
2023-12-22T06:26:14.779Z,101244.55
2023-12-22T06:28:27.614Z,101244.13
2023-12-22T06:30:40.233Z,101246.58
2023-12-22T06:32:52.999Z,101250.36
2023-12-22T06:35:05.982Z,101252.97
2023-12-22T06:37:18.958Z,101261.86
2023-12-22T06:39:31.551Z,101267.06
2023-12-22T06:41:44.730Z,101268.07
2023-12-22T06:43:57.269Z,101267.60
2023-12-22T06:46:18.490Z,101271.52
2023-12-22T06:48:32.099Z,101268.20
2023-12-22T06:50:46.967Z,101270.05
2023-12-22T06:53:04.467Z,101267.81
2023-12-22T06:55:22.596Z,101269.59
2023-12-22T06:57:36.350Z,101271.77
2023-12-22T06:59:51.405Z,101271.11
2023-12-22T07:02:12.495Z,101267.61
2023-12-22T07:05:10.303Z,101268.00
2023-12-22T07:07:22.974Z,101265.86
2023-12-22T07:09:39.350Z,101269.19
2023-12-22T07:11:53.069Z,101266.06
2023-12-22T07:14:05.559Z,101263.02
2023-12-22T07:16:19.126Z,101262.09
2023-12-22T07:18:32.682Z,101259.65
2023-12-22T07:20:44.956Z,101261.85
2023-12-22T07:22:58.520Z,101260.36
2023-12-22T07:25:13.580Z,101256.24
2023-12-22T07:27:27.595Z,101248.60
2023-12-22T07:29:41.139Z,101244.83
2023-12-22T07:31:53.676Z,101239.57
2023-12-22T07:34:07.624Z,101240.30
2023-12-22T07:36:23.631Z,101239.64
2023-12-22T07:38:36.608Z,101234.58
2023-12-22T07:40:49.079Z,101234.49
2023-12-22T07:43:01.636Z,101235.04
2023-12-22T07:45:15.168Z,101233.56
2023-12-22T07:47:27.524Z,101231.88
2023-12-22T07:49:39.886Z,101234.48
2023-12-22T07:51:53.839Z,101232.13
2023-12-22T07:54:07.152Z,101233.98
2023-12-22T07:56:19.786Z,101234.90
2023-12-22T07:58:32.453Z,101234.45
2023-12-22T08:00:44.802Z,101236.61
2023-12-22T08:02:57.310Z,101235.81
2023-12-22T08:05:10.536Z,101230.39
2023-12-22T08:07:23.173Z,101229.46
2023-12-22T08:09:36.679Z,101228.47
2023-12-22T08:11:49.826Z,101220.98
2023-12-22T08:14:02.487Z,101220.86
2023-12-22T08:16:15.054Z,101215.25
2023-12-22T08:18:27.497Z,101214.39
2023-12-22T08:20:42.275Z,101224.39
2023-12-22T08:22:57.478Z,101219.85
2023-12-22T08:25:11.221Z,101214.61
2023-12-22T08:27:26.453Z,101209.27
2023-12-22T08:29:39.477Z,101204.92
2023-12-22T08:31:51.876Z,101202.34
2023-12-22T08:34:04.476Z,101203.71
2023-12-22T08:36:17.071Z,101201.95
2023-12-22T08:38:29.701Z,101198.57
2023-12-22T08:40:42.585Z,101191.50
2023-12-22T08:42:56.817Z,101188.19
2023-12-22T08:45:09.999Z,101184.75
2023-12-22T08:47:22.533Z,101182.85
2023-12-22T08:49:34.893Z,101185.52
2023-12-22T08:51:47.278Z,101186.46
2023-12-22T08:53:59.775Z,101188.24
2023-12-22T08:56:12.311Z,101181.89
2023-12-22T08:58:24.839Z,101181.42
2023-12-22T09:00:37.519Z,101181.42
2023-12-22T09:02:50.102Z,101179.80
2023-12-22T09:05:02.585Z,101179.19
2023-12-22T09:07:15.051Z,101174.52
2023-12-22T09:09:27.689Z,101170.95
2023-12-22T09:11:40.456Z,101163.44
2023-12-22T09:13:53.153Z,101162.27
2023-12-22T09:16:06.408Z,101159.93
2023-12-22T09:18:19.056Z,101159.73
2023-12-22T09:20:32.264Z,101159.31
2023-12-22T09:22:44.605Z,101153.92
2023-12-22T09:24:57.273Z,101159.11
2023-12-22T09:27:09.810Z,101159.22
2023-12-22T09:29:23.722Z,101161.82
2023-12-22T09:31:36.674Z,101156.25
2023-12-22T09:33:49.504Z,101155.77
2023-12-22T09:36:02.119Z,101149.08
2023-12-22T09:38:15.411Z,101145.72
2023-12-22T09:40:27.933Z,101146.66
2023-12-22T09:42:41.579Z,101149.46
2023-12-22T09:44:57.284Z,101149.55
2023-12-22T09:47:11.829Z,101154.31
2023-12-22T09:49:25.242Z,101163.20
2023-12-22T09:51:41.155Z,101163.34
2023-12-22T09:53:54.582Z,101170.84
2023-12-22T09:56:08.230Z,101160.78
2023-12-22T09:58:21.275Z,101157.59
2023-12-22T10:00:35.737Z,101156.72
2023-12-22T10:02:48.693Z,101155.69
2023-12-22T10:05:01.147Z,101156.65
2023-12-22T10:07:16.724Z,101158.11
2023-12-22T10:09:29.789Z,101159.25
2023-12-22T10:11:43.667Z,101158.65
2023-12-22T10:13:58.965Z,101162.08
2023-12-22T10:16:13.583Z,101169.23
2023-12-22T10:18:26.293Z,101176.58
2023-12-22T10:20:38.822Z,101186.65
2023-12-22T10:22:51.180Z,101188.04
2023-12-22T10:25:04.909Z,101188.86
2023-12-22T10:27:18.865Z,101185.96
2023-12-22T10:29:31.281Z,101185.73
2023-12-22T10:31:47.971Z,101182.45
2023-12-22T10:34:00.242Z,101176.39
2023-12-22T10:36:14.316Z,101176.27
2023-12-22T10:38:27.791Z,101175.24
2023-12-22T10:40:41.098Z,101173.91
2023-12-22T10:42:55.043Z,101185.01
2023-12-22T10:45:08.063Z,101190.02
2023-12-22T10:47:21.190Z,101198.66
2023-12-22T10:49:36.136Z,101191.32
2023-12-22T10:51:48.682Z,101192.74
2023-12-22T10:54:01.098Z,101197.23
2023-12-22T10:56:14.414Z,101198.28
2023-12-22T10:58:26.900Z,101194.41
2023-12-22T11:00:40.000Z,101190.20
2023-12-22T11:03:00.539Z,101188.34
2023-12-22T11:05:14.706Z,101180.56
2023-12-22T11:07:30.156Z,101176.92
2023-12-22T11:09:47.015Z,101176.71
2023-12-22T11:12:00.330Z,101176.02
2023-12-22T11:14:14.386Z,101175.00
2023-12-22T11:16:28.237Z,101176.06
2023-12-22T11:18:42.584Z,101178.59
2023-12-22T11:20:55.648Z,101175.78
2023-12-22T11:23:09.615Z,101170.73
2023-12-22T11:25:22.898Z,101170.80
2023-12-22T11:27:37.361Z,101163.98
2023-12-22T11:29:52.015Z,101167.30
2023-12-22T11:32:08.728Z,101162.66
2023-12-22T11:34:21.888Z,101157.20
2023-12-22T11:36:35.478Z,101152.17
2023-12-22T11:38:48.970Z,101153.38
2023-12-22T11:41:03.876Z,101149.90
2023-12-22T11:43:17.059Z,101147.77
2023-12-22T11:45:29.802Z,101153.73
2023-12-22T11:47:43.349Z,101151.73
2023-12-22T11:50:08.257Z,101151.23
2023-12-22T11:52:34.343Z,101140.55
2023-12-22T11:54:54.367Z,101141.56
2023-12-22T11:57:08.918Z,101137.35
2023-12-22T11:59:42.611Z,101140.48
2023-12-22T12:02:18.011Z,101141.00
2023-12-22T12:04:51.726Z,101138.45
2023-12-22T12:07:51.718Z,101123.59
2023-12-22T12:10:37.737Z,101108.64
2023-12-22T12:13:10.783Z,101105.87
2023-12-22T12:15:33.929Z,101095.02
2023-12-22T12:18:07.868Z,101096.89
2023-12-22T12:20:20.763Z,101105.73
2023-12-22T12:22:35.627Z,101117.19
2023-12-22T12:24:48.964Z,101118.88
2023-12-22T12:27:01.792Z,101119.30
2023-12-22T12:29:17.664Z,101114.10
2023-12-22T12:31:44.017Z,101114.92
2023-12-22T12:33:57.352Z,101120.74
2023-12-22T12:36:20.300Z,101126.98
2023-12-22T12:38:46.905Z,101116.75
2023-12-22T12:41:01.273Z,101117.83
2023-12-22T12:43:14.896Z,101110.89
2023-12-22T12:45:31.241Z,101105.02
2023-12-22T12:47:43.618Z,101101.09
2023-12-22T12:50:03.398Z,101097.49
2023-12-22T12:52:19.835Z,101087.63
2023-12-22T12:54:32.665Z,101070.51
2023-12-22T12:56:46.758Z,101065.80
2023-12-22T12:58:59.820Z,101062.36
2023-12-22T13:01:26.067Z,101062.52
2023-12-22T13:03:58.418Z,101059.56
2023-12-22T13:06:17.193Z,101056.02
2023-12-22T13:08:36.273Z,101047.55
2023-12-22T13:11:04.050Z,101044.17
2023-12-22T13:13:17.443Z,101047.96
2023-12-22T13:15:29.979Z,101049.92
2023-12-22T13:17:42.663Z,101047.80
2023-12-22T13:19:55.385Z,101045.23
2023-12-22T13:22:08.082Z,101049.25
2023-12-22T13:24:21.604Z,101052.54
2023-12-22T13:26:33.958Z,101052.59
2023-12-22T13:29:02.270Z,101052.13
2023-12-22T13:31:24.244Z,101057.54
2023-12-22T13:33:40.578Z,101055.96
2023-12-22T13:35:53.329Z,101058.09
2023-12-22T13:38:06.331Z,101058.02
2023-12-22T13:40:21.135Z,101058.46
2023-12-22T13:42:33.841Z,101063.06
2023-12-22T13:44:51.977Z,101061.98
2023-12-22T13:47:09.493Z,101058.80
2023-12-22T13:49:22.662Z,101055.13
2023-12-22T13:51:45.717Z,101055.83
2023-12-22T13:54:01.097Z,101050.80
2023-12-22T13:56:14.809Z,101043.89
2023-12-22T13:58:27.792Z,101042.45
2023-12-22T14:00:41.446Z,101037.67
2023-12-22T14:02:55.041Z,101031.94
2023-12-22T14:05:08.702Z,101034.78
2023-12-22T14:07:32.286Z,101036.64
2023-12-22T14:09:44.959Z,101031.55
2023-12-22T14:12:02.298Z,101041.94
2023-12-22T14:14:19.179Z,101048.10
2023-12-22T14:16:32.194Z,101047.92
2023-12-22T14:18:44.730Z,101045.42
2023-12-22T14:20:57.133Z,101044.27
2023-12-22T14:23:14.725Z,101038.64
2023-12-22T14:25:29.330Z,101035.07
2023-12-22T14:27:42.615Z,101032.92
2023-12-22T14:29:55.280Z,101031.47
2023-12-22T14:32:10.638Z,101034.75
2023-12-22T14:34:24.238Z,101038.30
2023-12-22T14:36:37.132Z,101039.14
2023-12-22T14:38:50.295Z,101035.64
2023-12-22T14:41:12.572Z,101040.52
2023-12-22T14:43:25.568Z,101046.53
2023-12-22T14:45:37.948Z,101053.83
2023-12-22T14:47:51.104Z,101059.68
2023-12-22T14:50:06.079Z,101064.45
2023-12-22T14:52:18.634Z,101060.10
2023-12-22T14:54:31.395Z,101062.66
2023-12-22T14:56:54.088Z,101062.17
2023-12-22T14:59:09.618Z,101055.73
2023-12-22T15:01:35.377Z,101057.42
2023-12-22T15:03:48.425Z,101057.50
2023-12-22T15:06:01.649Z,101063.59
2023-12-22T15:08:16.515Z,101065.10
2023-12-22T15:10:29.130Z,101057.19
2023-12-22T15:12:44.738Z,101058.16
2023-12-22T15:14:57.228Z,101062.08
2023-12-22T15:17:09.941Z,101051.44
2023-12-22T15:19:22.570Z,101050.23
2023-12-22T15:21:35.277Z,101057.88
2023-12-22T15:23:48.342Z,101060.98
2023-12-22T15:26:00.734Z,101062.86
2023-12-22T15:28:13.480Z,101065.36
2023-12-22T15:30:27.625Z,101071.39
2023-12-22T15:32:40.202Z,101075.98
2023-12-22T15:34:52.860Z,101081.70
2023-12-22T15:37:08.705Z,101081.77
2023-12-22T15:39:21.442Z,101102.35
2023-12-22T15:41:37.529Z,101159.60
2023-12-22T15:43:50.869Z,101184.02
2023-12-22T15:46:07.920Z,101191.64
2023-12-22T15:48:20.956Z,101198.93
2023-12-22T15:50:33.457Z,101201.94
2023-12-22T15:52:47.824Z,101214.54
2023-12-22T15:55:00.448Z,101217.82
2023-12-22T15:57:15.770Z,101214.56
2023-12-22T15:59:28.319Z,101214.88
2023-12-22T16:01:46.065Z,101213.52
2023-12-22T16:03:58.740Z,101213.48
2023-12-22T16:06:12.447Z,101211.05
2023-12-22T16:08:24.888Z,101207.92
2023-12-22T16:10:37.390Z,101200.88
2023-12-22T16:12:50.352Z,101202.45
2023-12-22T16:15:03.212Z,101210.66
2023-12-22T16:17:16.382Z,101218.05
2023-12-22T16:19:31.904Z,101222.60
2023-12-22T16:21:54.368Z,101226.23
2023-12-22T16:24:07.063Z,101233.80
2023-12-22T16:26:22.507Z,101244.12
2023-12-22T16:28:35.113Z,101247.48
2023-12-22T16:30:47.767Z,101252.43
2023-12-22T16:33:00.484Z,101261.61
2023-12-22T16:35:13.912Z,101265.27
2023-12-22T16:37:31.309Z,101274.17
2023-12-22T16:39:54.788Z,101282.00
2023-12-22T16:42:11.408Z,101285.56
2023-12-22T16:44:24.586Z,101292.36
2023-12-22T16:46:37.434Z,101289.10
2023-12-22T16:48:50.111Z,101300.50
2023-12-22T16:51:03.175Z,101313.88
2023-12-22T16:53:16.138Z,101330.77
2023-12-22T16:55:28.653Z,101343.03
2023-12-22T16:57:43.830Z,101345.28
2023-12-22T16:59:57.167Z,101349.29
2023-12-22T17:02:26.873Z,101357.70
2023-12-22T17:04:43.167Z,101369.58
2023-12-22T17:06:59.822Z,101370.98
2023-12-22T17:09:12.910Z,101374.79
2023-12-22T17:11:25.703Z,101377.89
2023-12-22T17:13:38.214Z,101379.27
2023-12-22T17:15:51.039Z,101382.40
2023-12-22T17:18:06.634Z,101381.45
2023-12-22T17:20:19.922Z,101390.37
2023-12-22T17:22:32.442Z,101398.56
2023-12-22T17:24:46.535Z,101404.63
2023-12-22T17:26:59.173Z,101410.94
2023-12-22T17:29:11.668Z,101410.86
2023-12-22T17:31:25.951Z,101413.84
2023-12-22T17:33:40.658Z,101419.24
2023-12-22T17:35:53.504Z,101426.65
2023-12-22T17:38:07.597Z,101434.25
2023-12-22T17:40:21.749Z,101436.02
2023-12-22T17:42:34.535Z,101441.41
2023-12-22T17:44:58.657Z,101441.07
2023-12-22T17:47:12.718Z,101443.45
2023-12-22T17:49:35.216Z,101441.02
2023-12-22T17:51:48.985Z,101436.46
2023-12-22T17:54:01.608Z,101440.22
2023-12-22T17:56:14.780Z,101435.20
2023-12-22T17:58:28.402Z,101443.19
2023-12-22T18:00:44.521Z,101459.62
2023-12-22T18:02:57.094Z,101463.02
2023-12-22T18:05:19.294Z,101460.89
2023-12-22T18:07:32.265Z,101465.98
2023-12-22T18:09:46.704Z,101470.44
2023-12-22T18:11:59.418Z,101470.91
2023-12-22T18:14:12.704Z,101479.83
2023-12-22T18:16:25.446Z,101484.38
2023-12-22T18:18:41.175Z,101482.55
2023-12-22T18:21:15.643Z,101492.67
2023-12-22T18:23:37.485Z,101494.34
2023-12-22T18:25:50.540Z,101488.09
2023-12-22T18:28:03.068Z,101481.72
2023-12-22T18:30:16.834Z,101480.27
2023-12-22T18:32:29.698Z,101489.41
2023-12-22T18:34:45.324Z,101504.40
2023-12-22T18:37:17.880Z,101509.29
2023-12-22T18:39:34.324Z,101515.09
2023-12-22T18:41:47.724Z,101523.22
2023-12-22T18:44:03.094Z,101525.83
2023-12-22T18:46:15.748Z,101534.98
2023-12-22T18:48:28.416Z,101538.05
2023-12-22T18:50:54.057Z,101547.04
2023-12-22T18:53:08.704Z,101552.61
2023-12-22T18:55:21.700Z,101557.08
2023-12-22T18:57:34.124Z,101559.95
2023-12-22T18:59:46.701Z,101561.77
2023-12-22T19:02:15.403Z,101561.08
2023-12-22T19:04:44.075Z,101552.20
2023-12-22T19:07:05.953Z,101555.37
2023-12-22T19:09:38.785Z,101562.20
2023-12-22T19:11:51.787Z,101559.83
2023-12-22T19:14:15.396Z,101553.86
2023-12-22T19:16:39.014Z,101554.52
2023-12-22T19:18:53.599Z,101559.32
2023-12-22T19:21:26.255Z,101563.13
2023-12-22T19:23:39.011Z,101560.27
2023-12-22T19:26:01.888Z,101560.92
2023-12-22T19:28:14.646Z,101561.02
2023-12-22T19:30:30.543Z,101563.64
2023-12-22T19:32:43.334Z,101564.67
2023-12-22T19:34:59.189Z,101570.96
2023-12-22T19:37:12.182Z,101574.53
2023-12-22T19:39:26.354Z,101571.98
2023-12-22T19:41:58.830Z,101571.55
2023-12-22T19:44:11.851Z,101570.21
2023-12-22T19:46:36.428Z,101564.52
2023-12-22T19:48:49.679Z,101566.02
2023-12-22T19:51:02.267Z,101565.04
2023-12-22T19:53:18.640Z,101568.69
2023-12-22T19:55:33.575Z,101566.03
2023-12-22T19:57:49.357Z,101570.55
2023-12-22T20:00:15.609Z,101573.09
2023-12-22T20:02:29.001Z,101577.41
2023-12-22T20:04:43.996Z,101581.03
2023-12-22T20:06:56.505Z,101583.45
2023-12-22T20:09:10.346Z,101582.35
2023-12-22T20:11:43.131Z,101579.59
2023-12-22T20:13:57.622Z,101580.61
2023-12-22T20:16:14.487Z,101586.68
2023-12-22T20:18:27.067Z,101589.89
2023-12-22T20:20:40.681Z,101585.87
2023-12-22T20:22:53.344Z,101585.71
2023-12-22T20:25:05.733Z,101585.30
2023-12-22T20:27:29.775Z,101586.84
2023-12-22T20:29:42.224Z,101582.27
2023-12-22T20:32:04.734Z,101584.05
2023-12-22T20:34:17.426Z,101582.52
2023-12-22T20:36:40.928Z,101584.37
2023-12-22T20:38:56.525Z,101579.65
2023-12-22T20:41:11.062Z,101575.23
2023-12-22T20:43:23.789Z,101579.98
2023-12-22T20:45:36.240Z,101582.31
2023-12-22T20:47:49.231Z,101585.10
2023-12-22T20:50:01.940Z,101581.39
2023-12-22T20:52:35.873Z,101577.09
2023-12-22T20:54:49.573Z,101577.61
2023-12-22T20:57:22.042Z,101579.59
2023-12-22T20:59:39.934Z,101576.95
2023-12-22T21:01:56.129Z,101576.70
2023-12-22T21:04:15.350Z,101574.94
2023-12-22T21:06:28.069Z,101568.89
2023-12-22T21:08:43.736Z,101569.23
2023-12-22T21:10:59.937Z,101566.19
2023-12-22T21:13:12.925Z,101569.59
2023-12-22T21:15:26.727Z,101565.98
2023-12-22T21:17:44.462Z,101572.02
2023-12-22T21:20:07.763Z,101568.56
2023-12-22T21:22:20.665Z,101570.05
2023-12-22T21:24:35.242Z,101571.14
2023-12-22T21:26:48.281Z,101570.51
2023-12-22T21:29:00.832Z,101570.65
2023-12-22T21:31:24.837Z,101570.67
2023-12-22T21:33:46.632Z,101572.02
2023-12-22T21:35:59.600Z,101569.46
2023-12-22T21:38:33.512Z,101574.13
2023-12-22T21:40:46.599Z,101573.53
2023-12-22T21:42:59.569Z,101575.18
2023-12-22T21:45:22.615Z,101579.20
2023-12-22T21:47:39.615Z,101583.30
2023-12-22T21:49:55.074Z,101576.81
2023-12-22T21:52:08.139Z,101574.34
2023-12-22T21:54:42.103Z,101575.58
2023-12-22T21:57:05.478Z,101578.13
2023-12-22T21:59:18.680Z,101579.73
2023-12-22T22:01:31.921Z,101582.30
2023-12-22T22:03:45.770Z,101580.50
2023-12-22T22:06:08.727Z,101588.15
2023-12-22T22:08:21.271Z,101591.89
2023-12-22T22:10:33.961Z,101587.09
2023-12-22T22:12:57.603Z,101581.14
2023-12-22T22:15:11.399Z,101575.23
2023-12-22T22:17:33.968Z,101583.67
2023-12-22T22:19:46.523Z,101583.19
2023-12-22T22:21:59.071Z,101585.35
2023-12-22T22:24:22.824Z,101591.42
2023-12-22T22:26:47.561Z,101587.92
2023-12-22T22:29:09.283Z,101586.98
2023-12-22T22:31:27.042Z,101579.94
2023-12-22T22:33:50.325Z,101578.55
2023-12-22T22:36:14.338Z,101581.58
2023-12-22T22:38:30.658Z,101578.73
2023-12-22T22:40:49.623Z,101588.73
2023-12-22T22:43:13.503Z,101589.76
2023-12-22T22:45:35.164Z,101597.23
2023-12-22T22:47:51.152Z,101603.63
2023-12-22T22:50:04.655Z,101617.28
2023-12-22T22:52:17.424Z,101622.54
2023-12-22T22:54:37.411Z,101620.08
2023-12-22T22:57:00.792Z,101623.44
2023-12-22T22:59:13.568Z,101627.34
2023-12-22T23:01:29.149Z,101627.91
2023-12-22T23:04:00.487Z,101630.94
2023-12-22T23:06:16.779Z,101637.67
2023-12-22T23:08:29.380Z,101634.11
2023-12-22T23:10:42.004Z,101644.25
2023-12-22T23:12:54.702Z,101648.11
2023-12-22T23:15:13.615Z,101652.27
2023-12-22T23:17:29.773Z,101653.16
2023-12-22T23:19:52.245Z,101655.61
2023-12-22T23:22:05.333Z,101661.39
2023-12-22T23:24:19.470Z,101665.27
2023-12-22T23:26:32.001Z,101667.79
2023-12-22T23:29:05.068Z,101672.70
2023-12-22T23:31:17.623Z,101674.23
2023-12-22T23:33:30.344Z,101677.52
2023-12-22T23:35:43.059Z,101678.88
2023-12-22T23:38:09.387Z,101676.89
2023-12-22T23:40:22.338Z,101676.27
2023-12-22T23:42:34.746Z,101678.16
2023-12-22T23:44:51.102Z,101676.89
2023-12-22T23:47:09.201Z,101681.07
2023-12-22T23:49:24.972Z,101683.27
2023-12-22T23:51:46.511Z,101683.76
2023-12-22T23:53:58.893Z,101683.08
2023-12-22T23:56:18.509Z,101685.02
2023-12-22T23:58:31.542Z,101690.63
